sensor_id;sensor_type;location;lat;lon;timestamp;pressure;altitude;pressure_sealevel;temperature;humidity
64739;BME280;51175;51.186;0.276;2023-08-06T00:00:22;100708.97;;;20.52;55.74
64739;BME280;51175;51.186;0.276;2023-08-06T00:00:52;100708.97;;;20.52;55.83
64739;BME280;51175;51.186;0.276;2023-08-06T00:01:23;100707.09;;;20.52;55.98
64739;BME280;51175;51.186;0.276;2023-08-06T00:01:54;100714.34;;;20.52;55.64
64739;BME280;51175;51.186;0.276;2023-08-06T00:02:24;100714.34;;;20.52;55.71
64739;BME280;51175;51.186;0.276;2023-08-06T00:02:55;100708.19;;;20.51;55.71
64739;BME280;51175;51.186;0.276;2023-08-06T00:03:25;100708.97;;;20.52;55.64
64739;BME280;51175;51.186;0.276;2023-08-06T00:03:55;100709.28;;;20.50;55.94
64739;BME280;51175;51.186;0.276;2023-08-06T00:04:26;100718.13;;;20.51;55.55
64739;BME280;51175;51.186;0.276;2023-08-06T00:04:56;100717.34;;;20.50;55.80
64739;BME280;51175;51.186;0.276;2023-08-06T00:05:27;100721.13;;;20.49;55.83
64739;BME280;51175;51.186;0.276;2023-08-06T00:05:57;100713.88;;;20.50;55.87
64739;BME280;51175;51.186;0.276;2023-08-06T00:06:27;100718.47;;;20.49;55.81
64739;BME280;51175;51.186;0.276;2023-08-06T00:06:58;100724.94;;;20.48;55.64
64739;BME280;51175;51.186;0.276;2023-08-06T00:07:28;100722.25;;;20.48;55.80
64739;BME280;51175;51.186;0.276;2023-08-06T00:07:58;100723.34;;;20.47;55.69
64739;BME280;51175;51.186;0.276;2023-08-06T00:08:29;100726.81;;;20.47;55.61
64739;BME280;51175;51.186;0.276;2023-08-06T00:08:59;100728.72;;;20.47;55.80
64739;BME280;51175;51.186;0.276;2023-08-06T00:09:30;100723.34;;;20.47;55.92
64739;BME280;51175;51.186;0.276;2023-08-06T00:10:00;100733.31;;;20.46;55.71
64739;BME280;51175;51.186;0.276;2023-08-06T00:10:30;100733.31;;;20.46;55.88
64739;BME280;51175;51.186;0.276;2023-08-06T00:11:01;100732.50;;;20.46;55.78
64739;BME280;51175;51.186;0.276;2023-08-06T00:11:31;100728.25;;;20.45;55.85
64739;BME280;51175;51.186;0.276;2023-08-06T00:12:02;100730.94;;;20.45;55.66
64739;BME280;51175;51.186;0.276;2023-08-06T00:12:32;100727.47;;;20.44;55.45
64739;BME280;51175;51.186;0.276;2023-08-06T00:13:02;100732.03;;;20.44;55.62
64739;BME280;51175;51.186;0.276;2023-08-06T00:13:33;100723.22;;;20.43;55.83
64739;BME280;51175;51.186;0.276;2023-08-06T00:14:03;100734.72;;;20.44;55.81
64739;BME280;51175;51.186;0.276;2023-08-06T00:14:34;100730.47;;;20.43;55.78
64739;BME280;51175;51.186;0.276;2023-08-06T00:15:04;100726.22;;;20.42;55.79
64739;BME280;51175;51.186;0.276;2023-08-06T00:15:35;100736.94;;;20.42;55.61
64739;BME280;51175;51.186;0.276;2023-08-06T00:16:12;100734.28;;;20.42;55.91
64739;BME280;51175;51.186;0.276;2023-08-06T00:16:43;100734.28;;;20.42;55.84
64739;BME280;51175;51.186;0.276;2023-08-06T00:17:14;100736.94;;;20.42;55.53
64739;BME280;51175;51.186;0.276;2023-08-06T00:17:44;100735.03;;;20.42;55.90
64739;BME280;51175;51.186;0.276;2023-08-06T00:18:14;100737.72;;;20.42;55.51
64739;BME280;51175;51.186;0.276;2023-08-06T00:18:45;100744.22;;;20.41;55.64
64739;BME280;51175;51.186;0.276;2023-08-06T00:19:15;100740.41;;;20.42;55.74
64739;BME280;51175;51.186;0.276;2023-08-06T00:19:46;100738.03;;;20.41;55.77
64739;BME280;51175;51.186;0.276;2023-08-06T00:20:16;100730.78;;;20.41;55.83
64739;BME280;51175;51.186;0.276;2023-08-06T00:20:46;100741.53;;;20.41;55.54
64739;BME280;51175;51.186;0.276;2023-08-06T00:21:17;100739.97;;;20.40;55.83
64739;BME280;51175;51.186;0.276;2023-08-06T00:21:47;100739.97;;;20.40;55.60
64739;BME280;51175;51.186;0.276;2023-08-06T00:22:17;100739.97;;;20.40;55.76
64739;BME280;51175;51.186;0.276;2023-08-06T00:22:48;100741.84;;;20.40;55.62
64739;BME280;51175;51.186;0.276;2023-08-06T00:23:18;100741.84;;;20.40;55.58
64739;BME280;51175;51.186;0.276;2023-08-06T00:23:48;100736.47;;;20.40;55.63
64739;BME280;51175;51.186;0.276;2023-08-06T00:24:19;100744.84;;;20.38;55.47
64739;BME280;51175;51.186;0.276;2023-08-06T00:24:49;100742.97;;;20.39;55.60
64739;BME280;51175;51.186;0.276;2023-08-06T00:25:20;100742.97;;;20.39;55.64
64739;BME280;51175;51.186;0.276;2023-08-06T00:25:50;100742.97;;;20.39;55.69
64739;BME280;51175;51.186;0.276;2023-08-06T00:26:20;100748.31;;;20.39;55.47
64739;BME280;51175;51.186;0.276;2023-08-06T00:26:51;100755.56;;;20.38;55.40
64739;BME280;51175;51.186;0.276;2023-08-06T00:27:21;100753.69;;;20.39;55.61
64739;BME280;51175;51.186;0.276;2023-08-06T00:27:51;100747.53;;;20.38;55.43
64739;BME280;51175;51.186;0.276;2023-08-06T00:28:22;100752.09;;;20.38;55.65
64739;BME280;51175;51.186;0.276;2023-08-06T00:28:52;100750.22;;;20.38;55.51
64739;BME280;51175;51.186;0.276;2023-08-06T00:29:22;100758.25;;;20.38;55.65
64739;BME280;51175;51.186;0.276;2023-08-06T00:29:53;100746.72;;;20.38;55.44
64739;BME280;51175;51.186;0.276;2023-08-06T00:30:23;100748.66;;;20.37;55.59
64739;BME280;51175;51.186;0.276;2023-08-06T00:30:54;100758.56;;;20.37;55.69
64739;BME280;51175;51.186;0.276;2023-08-06T00:31:25;100757.78;;;20.36;55.64
64739;BME280;51175;51.186;0.276;2023-08-06T00:31:55;100761.25;;;20.37;55.64
64739;BME280;51175;51.186;0.276;2023-08-06T00:32:26;100755.09;;;20.36;55.51
64739;BME280;51175;51.186;0.276;2023-08-06T00:32:56;100757.78;;;20.36;55.46
64739;BME280;51175;51.186;0.276;2023-08-06T00:33:26;100768.81;;;20.34;55.55
64739;BME280;51175;51.186;0.276;2023-08-06T00:33:57;100757.34;;;20.34;55.38
64739;BME280;51175;51.186;0.276;2023-08-06T00:34:27;100759.22;;;20.33;55.10
64739;BME280;51175;51.186;0.276;2023-08-06T00:34:57;100772.63;;;20.33;55.22
64739;BME280;51175;51.186;0.276;2023-08-06T00:35:29;100768.06;;;20.34;55.35
64739;BME280;51175;51.186;0.276;2023-08-06T00:36:00;100767.25;;;20.33;55.42
64739;BME280;51175;51.186;0.276;2023-08-06T00:36:30;100778.31;;;20.32;55.38
64739;BME280;51175;51.186;0.276;2023-08-06T00:37:00;100766.78;;;20.31;55.39
64739;BME280;51175;51.186;0.276;2023-08-06T00:37:31;100774.03;;;20.31;55.44
64739;BME280;51175;51.186;0.276;2023-08-06T00:38:02;100774.81;;;20.31;55.53
64739;BME280;51175;51.186;0.276;2023-08-06T00:38:32;100778.31;;;20.32;55.21
64739;BME280;51175;51.186;0.276;2023-08-06T00:39:03;100782.88;;;20.31;55.13
64739;BME280;51175;51.186;0.276;2023-08-06T00:39:33;100779.41;;;20.31;55.17
64739;BME280;51175;51.186;0.276;2023-08-06T00:40:04;100771.66;;;20.29;55.05
64739;BME280;51175;51.186;0.276;2023-08-06T00:40:34;100777.84;;;20.30;55.25
64739;BME280;51175;51.186;0.276;2023-08-06T00:41:05;100779.72;;;20.29;55.14
64739;BME280;51175;51.186;0.276;2023-08-06T00:41:35;100778.94;;;20.29;55.10
64739;BME280;51175;51.186;0.276;2023-08-06T00:42:06;100778.16;;;20.28;55.34
64739;BME280;51175;51.186;0.276;2023-08-06T00:42:36;100788.88;;;20.28;55.33
64739;BME280;51175;51.186;0.276;2023-08-06T00:43:06;100784.31;;;20.29;55.49
64739;BME280;51175;51.186;0.276;2023-08-06T00:43:37;100791.56;;;20.28;55.59
64739;BME280;51175;51.186;0.276;2023-08-06T00:44:07;100795.03;;;20.29;55.21
64739;BME280;51175;51.186;0.276;2023-08-06T00:44:38;100789.66;;;20.29;55.23
64739;BME280;51175;51.186;0.276;2023-08-06T00:45:09;100793.44;;;20.28;55.35
64739;BME280;51175;51.186;0.276;2023-08-06T00:45:39;100799.59;;;20.28;55.47
64739;BME280;51175;51.186;0.276;2023-08-06T00:46:10;100796.91;;;20.28;55.22
64739;BME280;51175;51.186;0.276;2023-08-06T00:46:40;100796.13;;;20.28;55.13
64739;BME280;51175;51.186;0.276;2023-08-06T00:47:11;100793.00;;;20.26;55.32
64739;BME280;51175;51.186;0.276;2023-08-06T00:47:41;100802.91;;;20.25;55.16
64739;BME280;51175;51.186;0.276;2023-08-06T00:48:12;100805.59;;;20.25;55.00
64739;BME280;51175;51.186;0.276;2023-08-06T00:48:43;100802.13;;;20.25;55.18
64739;BME280;51175;51.186;0.276;2023-08-06T00:49:13;100796.75;;;20.25;54.97
64739;BME280;51175;51.186;0.276;2023-08-06T00:49:44;100798.69;;;20.24;55.16
64739;BME280;51175;51.186;0.276;2023-08-06T00:50:14;100804.81;;;20.25;55.18
64739;BME280;51175;51.186;0.276;2023-08-06T00:50:46;100805.91;;;20.24;55.06
64739;BME280;51175;51.186;0.276;2023-08-06T00:51:17;100799.75;;;20.23;55.18
64739;BME280;51175;51.186;0.276;2023-08-06T00:51:47;100802.44;;;20.23;55.07
64739;BME280;51175;51.186;0.276;2023-08-06T00:52:18;100801.69;;;20.22;55.10
64739;BME280;51175;51.186;0.276;2023-08-06T00:52:49;100799.75;;;20.23;55.35
64739;BME280;51175;51.186;0.276;2023-08-06T00:53:19;100799.75;;;20.23;55.30
64739;BME280;51175;51.186;0.276;2023-08-06T00:53:50;100797.06;;;20.23;55.11
64739;BME280;51175;51.186;0.276;2023-08-06T00:54:23;100797.88;;;20.24;55.19
64739;BME280;51175;51.186;0.276;2023-08-06T00:54:54;100799.00;;;20.22;55.16
64739;BME280;51175;51.186;0.276;2023-08-06T00:55:24;100806.25;;;20.22;55.01
64739;BME280;51175;51.186;0.276;2023-08-06T00:55:55;100807.03;;;20.22;55.03
64739;BME280;51175;51.186;0.276;2023-08-06T00:56:26;100809.72;;;20.22;54.95
64739;BME280;51175;51.186;0.276;2023-08-06T00:56:57;100803.56;;;20.22;54.94
64739;BME280;51175;51.186;0.276;2023-08-06T00:57:29;100796.63;;;20.21;55.10
64739;BME280;51175;51.186;0.276;2023-08-06T00:57:59;100807.34;;;20.21;55.01
64739;BME280;51175;51.186;0.276;2023-08-06T00:58:30;100816.97;;;20.22;55.16
64739;BME280;51175;51.186;0.276;2023-08-06T00:59:00;100814.28;;;20.22;54.93
64739;BME280;51175;51.186;0.276;2023-08-06T00:59:31;100804.69;;;20.21;55.07
64739;BME280;51175;51.186;0.276;2023-08-06T01:00:02;100811.91;;;20.20;54.91
64739;BME280;51175;51.186;0.276;2023-08-06T01:00:34;100809.25;;;20.20;55.02
64739;BME280;51175;51.186;0.276;2023-08-06T01:01:04;100812.72;;;20.21;55.07
64739;BME280;51175;51.186;0.276;2023-08-06T01:01:35;100813.50;;;20.21;55.21
64739;BME280;51175;51.186;0.276;2023-08-06T01:02:05;100814.59;;;20.20;55.20
64739;BME280;51175;51.186;0.276;2023-08-06T01:02:37;100820.75;;;20.21;55.33
64739;BME280;51175;51.186;0.276;2023-08-06T01:03:07;100808.44;;;20.20;54.93
64739;BME280;51175;51.186;0.276;2023-08-06T01:03:38;100819.16;;;20.20;55.34
64739;BME280;51175;51.186;0.276;2023-08-06T01:04:10;100815.72;;;20.19;55.37
64739;BME280;51175;51.186;0.276;2023-08-06T01:04:41;100821.84;;;20.20;55.04
64739;BME280;51175;51.186;0.276;2023-08-06T01:05:12;100822.97;;;20.19;55.21
64739;BME280;51175;51.186;0.276;2023-08-06T01:05:42;100812.25;;;20.19;54.96
64739;BME280;51175;51.186;0.276;2023-08-06T01:06:12;100816.81;;;20.18;55.04
64739;BME280;51175;51.186;0.276;2023-08-06T01:06:48;100811.44;;;20.18;55.13
64739;BME280;51175;51.186;0.276;2023-08-06T01:08:54;100812.88;;;20.16;54.98
64739;BME280;51175;51.186;0.276;2023-08-06T01:10:38;100811.63;;;20.13;55.10
64739;BME280;51175;51.186;0.276;2023-08-06T01:12:29;100814.63;;;20.12;55.19
64739;BME280;51175;51.186;0.276;2023-08-06T01:13:48;100813.34;;;20.09;55.11
64739;BME280;51175;51.186;0.276;2023-08-06T01:14:36;100812.09;;;20.06;55.06
64739;BME280;51175;51.186;0.276;2023-08-06T01:15:17;100820.13;;;20.06;54.91
64739;BME280;51175;51.186;0.276;2023-08-06T01:15:50;100811.63;;;20.04;55.20
64739;BME280;51175;51.186;0.276;2023-08-06T01:16:24;100822.34;;;20.04;55.19
64739;BME280;51175;51.186;0.276;2023-08-06T01:16:54;100823.13;;;20.05;55.01
64739;BME280;51175;51.186;0.276;2023-08-06T01:17:25;100820.44;;;20.05;55.12
64739;BME280;51175;51.186;0.276;2023-08-06T01:17:57;100821.25;;;20.05;55.21
64739;BME280;51175;51.186;0.276;2023-08-06T01:18:27;100827.69;;;20.04;55.25
64739;BME280;51175;51.186;0.276;2023-08-06T01:18:58;100823.94;;;20.05;55.21
64739;BME280;51175;51.186;0.276;2023-08-06T01:19:28;100825.00;;;20.04;54.92
64739;BME280;51175;51.186;0.276;2023-08-06T01:19:58;100826.59;;;20.05;55.19
64739;BME280;51175;51.186;0.276;2023-08-06T01:20:30;100822.34;;;20.04;55.11
64739;BME280;51175;51.186;0.276;2023-08-06T01:21:01;100827.69;;;20.04;55.15
64739;BME280;51175;51.186;0.276;2023-08-06T01:21:31;100824.25;;;20.04;54.79
64739;BME280;51175;51.186;0.276;2023-08-06T01:22:02;100827.69;;;20.04;55.02
64739;BME280;51175;51.186;0.276;2023-08-06T01:22:32;100829.59;;;20.04;54.88
64739;BME280;51175;51.186;0.276;2023-08-06T01:23:02;100829.28;;;20.05;55.18
64739;BME280;51175;51.186;0.276;2023-08-06T01:23:33;100835.75;;;20.04;54.76
64739;BME280;51175;51.186;0.276;2023-08-06T01:24:04;100831.97;;;20.05;54.91
64739;BME280;51175;51.186;0.276;2023-08-06T01:24:34;100845.38;;;20.05;54.88
64739;BME280;51175;51.186;0.276;2023-08-06T01:25:05;100841.91;;;20.05;54.88
64739;BME280;51175;51.186;0.276;2023-08-06T01:25:46;100836.53;;;20.05;54.83
64739;BME280;51175;51.186;0.276;2023-08-06T01:26:37;100843.78;;;20.04;54.93
64739;BME280;51175;51.186;0.276;2023-08-06T01:27:14;100836.84;;;20.03;55.17
64739;BME280;51175;51.186;0.276;2023-08-06T01:27:53;100837.13;;;20.02;54.92
64739;BME280;51175;51.186;0.276;2023-08-06T01:28:38;100842.22;;;20.03;54.86
64739;BME280;51175;51.186;0.276;2023-08-06T01:29:25;100837.13;;;20.02;55.10
64739;BME280;51175;51.186;0.276;2023-08-06T01:30:29;100843.31;;;20.02;55.03
64739;BME280;51175;51.186;0.276;2023-08-06T01:31:02;100843.63;;;20.01;55.04
64739;BME280;51175;51.186;0.276;2023-08-06T01:31:43;100845.50;;;20.00;55.10
64739;BME280;51175;51.186;0.276;2023-08-06T01:32:15;100849.75;;;20.01;54.91
64739;BME280;51175;51.186;0.276;2023-08-06T01:32:53;100856.22;;;20.00;54.96
64739;BME280;51175;51.186;0.276;2023-08-06T01:33:27;100847.06;;;20.01;55.06
64739;BME280;51175;51.186;0.276;2023-08-06T01:34:01;100851.66;;;20.01;55.25
64739;BME280;51175;51.186;0.276;2023-08-06T01:34:33;100851.66;;;20.01;55.12
64739;BME280;51175;51.186;0.276;2023-08-06T01:35:04;100851.66;;;20.01;55.24
64739;BME280;51175;51.186;0.276;2023-08-06T01:35:35;100857.78;;;20.01;54.93
64739;BME280;51175;51.186;0.276;2023-08-06T01:36:07;100852.44;;;20.01;54.80
64739;BME280;51175;51.186;0.276;2023-08-06T01:36:38;100861.56;;;20.00;55.08
64739;BME280;51175;51.186;0.276;2023-08-06T01:37:09;100859.69;;;20.01;55.08
64739;BME280;51175;51.186;0.276;2023-08-06T01:37:40;100862.38;;;20.01;55.05
64739;BME280;51175;51.186;0.276;2023-08-06T01:38:11;100855.91;;;20.02;54.86
64739;BME280;51175;51.186;0.276;2023-08-06T01:38:41;100865.81;;;20.01;55.13
64739;BME280;51175;51.186;0.276;2023-08-06T01:39:12;100863.16;;;20.01;55.04
64739;BME280;51175;51.186;0.276;2023-08-06T01:39:43;100858.59;;;20.02;55.06
64739;BME280;51175;51.186;0.276;2023-08-06T01:40:14;100865.81;;;20.01;55.01
64739;BME280;51175;51.186;0.276;2023-08-06T01:40:44;100861.25;;;20.02;54.88
64739;BME280;51175;51.186;0.276;2023-08-06T01:41:14;100858.59;;;20.02;55.19
64739;BME280;51175;51.186;0.276;2023-08-06T01:41:45;100867.44;;;20.02;54.94
64739;BME280;51175;51.186;0.276;2023-08-06T01:42:15;100870.91;;;20.03;55.10
64739;BME280;51175;51.186;0.276;2023-08-06T01:42:46;100866.34;;;20.03;54.91
64739;BME280;51175;51.186;0.276;2023-08-06T01:43:16;100864.78;;;20.02;55.24
64739;BME280;51175;51.186;0.276;2023-08-06T01:43:46;100859.41;;;20.02;54.95
64739;BME280;51175;51.186;0.276;2023-08-06T01:44:17;100871.69;;;20.03;55.00
64739;BME280;51175;51.186;0.276;2023-08-06T01:44:48;100878.94;;;20.03;55.02
64739;BME280;51175;51.186;0.276;2023-08-06T01:45:18;100877.06;;;20.03;55.01
64739;BME280;51175;51.186;0.276;2023-08-06T01:45:48;100878.94;;;20.03;54.90
64739;BME280;51175;51.186;0.276;2023-08-06T01:46:19;100882.41;;;20.03;55.06
64739;BME280;51175;51.186;0.276;2023-08-06T01:46:49;100877.06;;;20.03;54.97
64739;BME280;51175;51.186;0.276;2023-08-06T01:47:19;100877.06;;;20.03;54.77
64739;BME280;51175;51.186;0.276;2023-08-06T01:47:50;100883.22;;;20.04;55.09
64739;BME280;51175;51.186;0.276;2023-08-06T01:48:20;100882.41;;;20.03;55.15
64739;BME280;51175;51.186;0.276;2023-08-06T01:48:50;100885.09;;;20.03;54.87
64739;BME280;51175;51.186;0.276;2023-08-06T01:49:21;100877.06;;;20.03;55.05
64739;BME280;51175;51.186;0.276;2023-08-06T01:49:51;100882.41;;;20.03;54.93
64739;BME280;51175;51.186;0.276;2023-08-06T01:50:21;100886.22;;;20.02;55.04
64739;BME280;51175;51.186;0.276;2023-08-06T01:50:52;100887.00;;;20.03;54.69
64739;BME280;51175;51.186;0.276;2023-08-06T01:51:22;100882.41;;;20.03;54.91
64739;BME280;51175;51.186;0.276;2023-08-06T01:51:52;100889.66;;;20.03;54.78
64739;BME280;51175;51.186;0.276;2023-08-06T01:52:23;100883.53;;;20.02;54.82
64739;BME280;51175;51.186;0.276;2023-08-06T01:52:53;100886.22;;;20.02;55.04
64739;BME280;51175;51.186;0.276;2023-08-06T01:53:23;100890.47;;;20.03;55.05
64739;BME280;51175;51.186;0.276;2023-08-06T01:53:54;100885.09;;;20.03;54.77
64739;BME280;51175;51.186;0.276;2023-08-06T01:54:24;100891.56;;;20.02;54.71
64739;BME280;51175;51.186;0.276;2023-08-06T01:54:55;100883.53;;;20.02;54.90
64739;BME280;51175;51.186;0.276;2023-08-06T01:55:25;100887.00;;;20.03;54.60
64739;BME280;51175;51.186;0.276;2023-08-06T01:55:55;100895.31;;;20.01;54.58
64739;BME280;51175;51.186;0.276;2023-08-06T01:56:26;100892.63;;;20.01;54.67
64739;BME280;51175;51.186;0.276;2023-08-06T01:56:56;100889.94;;;20.01;54.74
64739;BME280;51175;51.186;0.276;2023-08-06T01:57:28;100888.38;;;20.00;54.92
64739;BME280;51175;51.186;0.276;2023-08-06T01:57:58;100884.09;;;19.99;54.56
64739;BME280;51175;51.186;0.276;2023-08-06T01:58:29;100891.38;;;19.98;54.68
64739;BME280;51175;51.186;0.276;2023-08-06T01:58:59;100897.50;;;19.99;54.82
64739;BME280;51175;51.186;0.276;2023-08-06T01:59:29;100894.06;;;19.98;54.57
64739;BME280;51175;51.186;0.276;2023-08-06T02:00:00;100887.09;;;19.97;54.57
64739;BME280;51175;51.186;0.276;2023-08-06T02:00:30;100886.03;;;19.98;54.88
64739;BME280;51175;51.186;0.276;2023-08-06T02:01:01;100888.69;;;19.98;54.63
64739;BME280;51175;51.186;0.276;2023-08-06T02:01:32;100890.59;;;19.98;54.68
64739;BME280;51175;51.186;0.276;2023-08-06T02:02:02;100887.91;;;19.98;54.43
64739;BME280;51175;51.186;0.276;2023-08-06T02:02:33;100887.91;;;19.98;54.73
64739;BME280;51175;51.186;0.276;2023-08-06T02:03:04;100886.34;;;19.97;54.52
64739;BME280;51175;51.186;0.276;2023-08-06T02:03:34;100887.91;;;19.98;54.71
64739;BME280;51175;51.186;0.276;2023-08-06T02:04:04;100886.34;;;19.97;54.44
64739;BME280;51175;51.186;0.276;2023-08-06T02:04:35;100889.78;;;19.97;54.45
64739;BME280;51175;51.186;0.276;2023-08-06T02:05:05;100886.34;;;19.97;54.36
64739;BME280;51175;51.186;0.276;2023-08-06T02:05:36;100880.16;;;19.96;54.56
64739;BME280;51175;51.186;0.276;2023-08-06T02:06:06;100888.22;;;19.96;54.69
64739;BME280;51175;51.186;0.276;2023-08-06T02:06:36;100882.84;;;19.96;54.51
64739;BME280;51175;51.186;0.276;2023-08-06T02:07:07;100889.78;;;19.97;54.43
64739;BME280;51175;51.186;0.276;2023-08-06T02:07:37;100880.16;;;19.96;54.52
64739;BME280;51175;51.186;0.276;2023-08-06T02:08:07;100889.00;;;19.97;54.64
64739;BME280;51175;51.186;0.276;2023-08-06T02:08:38;100892.78;;;19.96;54.67
64739;BME280;51175;51.186;0.276;2023-08-06T02:09:09;100888.22;;;19.96;54.53
64739;BME280;51175;51.186;0.276;2023-08-06T02:09:40;100888.22;;;19.96;54.62
64739;BME280;51175;51.186;0.276;2023-08-06T02:10:10;100893.56;;;19.96;54.45
64739;BME280;51175;51.186;0.276;2023-08-06T02:10:40;100894.38;;;19.97;54.73
64739;BME280;51175;51.186;0.276;2023-08-06T02:11:11;100892.00;;;19.95;54.67
64739;BME280;51175;51.186;0.276;2023-08-06T02:11:42;100889.78;;;19.97;54.66
64739;BME280;51175;51.186;0.276;2023-08-06T02:12:12;100893.56;;;19.96;54.48
64739;BME280;51175;51.186;0.276;2023-08-06T02:12:42;100895.47;;;19.96;54.87
64739;BME280;51175;51.186;0.276;2023-08-06T02:13:13;100897.38;;;19.95;54.52
64739;BME280;51175;51.186;0.276;2023-08-06T02:13:43;100893.88;;;19.95;54.57
64739;BME280;51175;51.186;0.276;2023-08-06T02:14:14;100900.03;;;19.95;54.43
64739;BME280;51175;51.186;0.276;2023-08-06T02:14:44;100899.25;;;19.95;54.37
64739;BME280;51175;51.186;0.276;2023-08-06T02:15:14;100899.25;;;19.95;54.60
64739;BME280;51175;51.186;0.276;2023-08-06T02:15:45;100896.56;;;19.95;54.60
64739;BME280;51175;51.186;0.276;2023-08-06T02:16:19;100901.13;;;19.94;54.65
64739;BME280;51175;51.186;0.276;2023-08-06T02:16:49;100895.78;;;19.94;54.58
64739;BME280;51175;51.186;0.276;2023-08-06T02:17:20;100895.00;;;19.94;54.43
64739;BME280;51175;51.186;0.276;2023-08-06T02:17:50;100899.56;;;19.93;54.57
64739;BME280;51175;51.186;0.276;2023-08-06T02:18:21;100896.09;;;19.93;54.38
64739;BME280;51175;51.186;0.276;2023-08-06T02:18:51;100899.56;;;19.93;54.46
64739;BME280;51175;51.186;0.276;2023-08-06T02:19:21;100901.44;;;19.93;54.32
64739;BME280;51175;51.186;0.276;2023-08-06T02:19:52;100907.59;;;19.93;54.32
64739;BME280;51175;51.186;0.276;2023-08-06T02:20:22;100902.56;;;19.92;54.57
64739;BME280;51175;51.186;0.276;2023-08-06T02:20:58;100909.03;;;19.91;54.44
64739;BME280;51175;51.186;0.276;2023-08-06T02:21:29;100907.44;;;19.90;54.67
64739;BME280;51175;51.186;0.276;2023-08-06T02:21:59;100905.25;;;19.92;54.59
64739;BME280;51175;51.186;0.276;2023-08-06T02:22:30;100907.91;;;19.92;54.32
64739;BME280;51175;51.186;0.276;2023-08-06T02:23:00;100912.16;;;19.93;54.59
64739;BME280;51175;51.186;0.276;2023-08-06T02:23:30;100912.47;;;19.91;54.71
64739;BME280;51175;51.186;0.276;2023-08-06T02:24:01;100915.16;;;19.91;54.65
64739;BME280;51175;51.186;0.276;2023-08-06T02:24:31;100910.91;;;19.90;54.31
64739;BME280;51175;51.186;0.276;2023-08-06T02:25:02;100917.06;;;19.91;54.32
64739;BME280;51175;51.186;0.276;2023-08-06T02:25:32;100912.78;;;19.90;54.40
64739;BME280;51175;51.186;0.276;2023-08-06T02:26:04;100915.47;;;19.90;54.68
64739;BME280;51175;51.186;0.276;2023-08-06T02:26:35;100916.28;;;19.90;54.62
64739;BME280;51175;51.186;0.276;2023-08-06T02:27:05;100913.59;;;19.90;54.67
64739;BME280;51175;51.186;0.276;2023-08-06T02:27:37;100920.06;;;19.89;54.57
64739;BME280;51175;51.186;0.276;2023-08-06T02:28:07;100917.38;;;19.89;54.43
64739;BME280;51175;51.186;0.276;2023-08-06T02:28:38;100915.78;;;19.88;54.46
64739;BME280;51175;51.186;0.276;2023-08-06T02:29:08;100918.47;;;19.88;54.51
64739;BME280;51175;51.186;0.276;2023-08-06T02:29:40;100918.47;;;19.88;54.52
64739;BME280;51175;51.186;0.276;2023-08-06T02:30:11;100917.69;;;19.88;54.52
64739;BME280;51175;51.186;0.276;2023-08-06T02:30:50;100912.34;;;19.88;54.32
64739;BME280;51175;51.186;0.276;2023-08-06T02:31:20;100918.47;;;19.88;54.39
64739;BME280;51175;51.186;0.276;2023-08-06T02:31:50;100919.25;;;19.89;54.33
64739;BME280;51175;51.186;0.276;2023-08-06T02:32:21;100917.69;;;19.88;54.62
64739;BME280;51175;51.186;0.276;2023-08-06T02:32:52;100915.00;;;19.88;54.53
64739;BME280;51175;51.186;0.276;2023-08-06T02:33:22;100911.53;;;19.87;54.53
64739;BME280;51175;51.186;0.276;2023-08-06T02:33:52;100913.41;;;19.87;54.52
64739;BME280;51175;51.186;0.276;2023-08-06T02:34:24;100907.28;;;19.86;54.58
64739;BME280;51175;51.186;0.276;2023-08-06T02:34:55;100911.53;;;19.87;54.34
64739;BME280;51175;51.186;0.276;2023-08-06T02:35:25;100921.47;;;19.87;54.56
64739;BME280;51175;51.186;0.276;2023-08-06T02:35:59;100926.81;;;19.87;54.48
64739;BME280;51175;51.186;0.276;2023-08-06T02:36:30;100917.22;;;19.85;54.43
64739;BME280;51175;51.186;0.276;2023-08-06T02:37:01;100913.72;;;19.85;54.29
64739;BME280;51175;51.186;0.276;2023-08-06T02:37:34;100922.56;;;19.85;54.41
64739;BME280;51175;51.186;0.276;2023-08-06T02:38:05;100922.09;;;19.83;54.35
64739;BME280;51175;51.186;0.276;2023-08-06T02:38:35;100920.19;;;19.84;54.23
64739;BME280;51175;51.186;0.276;2023-08-06T02:39:05;100928.56;;;19.82;54.32
64739;BME280;51175;51.186;0.276;2023-08-06T02:39:36;100925.88;;;19.82;54.46
64739;BME280;51175;51.186;0.276;2023-08-06T02:40:09;100925.06;;;19.82;54.60
64739;BME280;51175;51.186;0.276;2023-08-06T02:40:46;100918.94;;;19.81;54.21
64739;BME280;51175;51.186;0.276;2023-08-06T02:41:17;100918.16;;;19.81;54.41
64739;BME280;51175;51.186;0.276;2023-08-06T02:41:48;100914.66;;;19.80;54.48
64739;BME280;51175;51.186;0.276;2023-08-06T02:42:18;100922.72;;;19.80;54.24
64739;BME280;51175;51.186;0.276;2023-08-06T02:42:48;100914.66;;;19.80;54.26
64739;BME280;51175;51.186;0.276;2023-08-06T02:43:19;100915.47;;;19.81;54.60
64739;BME280;51175;51.186;0.276;2023-08-06T02:43:49;100923.81;;;19.79;54.60
64739;BME280;51175;51.186;0.276;2023-08-06T02:44:19;100921.13;;;19.79;54.36
64739;BME280;51175;51.186;0.276;2023-08-06T02:44:50;100918.47;;;19.79;54.28
64739;BME280;51175;51.186;0.276;2023-08-06T02:45:20;100921.94;;;19.80;54.44
64739;BME280;51175;51.186;0.276;2023-08-06T02:45:51;100920.34;;;19.79;54.27
64739;BME280;51175;51.186;0.276;2023-08-06T02:46:21;100927.28;;;19.80;54.49
64739;BME280;51175;51.186;0.276;2023-08-06T02:46:51;100921.13;;;19.79;54.54
64739;BME280;51175;51.186;0.276;2023-08-06T02:47:22;100920.34;;;19.79;54.52
64739;BME280;51175;51.186;0.276;2023-08-06T02:47:52;100922.25;;;19.78;54.45
64739;BME280;51175;51.186;0.276;2023-08-06T02:48:22;100930.28;;;19.78;54.60